Terminal Aerodrome Forecast
Issued by NWS

Home | Current Version | Previous Version | Text Only | Print | Product List | Glossary On
Versions: 1 2 3 4 5 6 7 8 9 10 11 12 13 14 15 16 17 18 19 20 21 22 23
961
FTUS43 KGRB 262332
TAFMTW
TAF
KMTW 262332Z 2700/2724 20010KT P6SM VCSH SCT020 BKN100
     FM270300 28004KT P6SM BKN025
     FM270900 01005KT P6SM SCT025
     FM271200 04008KT P6SM SKC
     FM271700 03010KT P6SM SCT035=

USA.gov is the U.S. government's official web portal to all federal, state and local government web resources and services.